sensor_id;sensor_type;location;lat;lon;timestamp;pressure;altitude;pressure_sealevel;temperature;humidity
11339;BME280;5724;42.684;23.252;2023-08-07T00:02:23;93831.66;;;16.87;78.67
11339;BME280;5724;42.684;23.252;2023-08-07T00:04:49;93829.72;;;16.84;78.77
11339;BME280;5724;42.684;23.252;2023-08-07T00:07:14;93826.91;;;16.91;78.37
11339;BME280;5724;42.684;23.252;2023-08-07T00:09:40;93828.13;;;16.86;78.67
11339;BME280;5724;42.684;23.252;2023-08-07T00:12:05;93826.53;;;16.89;78.76
11339;BME280;5724;42.684;23.252;2023-08-07T00:14:31;93829.28;;;16.89;78.86
11339;BME280;5724;42.684;23.252;2023-08-07T00:16:56;93825.78;;;16.85;78.75
11339;BME280;5724;42.684;23.252;2023-08-07T00:19:22;93824.66;;;16.79;78.99
11339;BME280;5724;42.684;23.252;2023-08-07T00:21:47;93827.03;;;16.80;79.02
11339;BME280;5724;42.684;23.252;2023-08-07T00:24:13;93829.03;;;16.76;79.14
11339;BME280;5724;42.684;23.252;2023-08-07T00:26:38;93832.84;;;16.90;79.00
11339;BME280;5724;42.684;23.252;2023-08-07T00:29:03;93844.44;;;16.74;79.43
11339;BME280;5724;42.684;23.252;2023-08-07T00:31:29;93835.78;;;16.72;79.78
11339;BME280;5724;42.684;23.252;2023-08-07T00:33:57;93836.56;;;16.72;79.63
11339;BME280;5724;42.684;23.252;2023-08-07T00:36:23;93832.69;;;16.63;80.15
11339;BME280;5724;42.684;23.252;2023-08-07T00:38:49;93831.50;;;16.64;80.17
11339;BME280;5724;42.684;23.252;2023-08-07T00:41:16;93829.69;;;16.46;80.91
11339;BME280;5724;42.684;23.252;2023-08-07T00:43:43;93840.72;;;16.46;81.07
11339;BME280;5724;42.684;23.252;2023-08-07T00:46:08;93838.47;;;16.34;82.07
11339;BME280;5724;42.684;23.252;2023-08-07T00:48:34;93832.19;;;15.82;85.96
11339;BME280;5724;42.684;23.252;2023-08-07T00:51:00;93829.59;;;15.60;87.68
11339;BME280;5724;42.684;23.252;2023-08-07T00:53:25;93837.72;;;15.78;87.30
11339;BME280;5724;42.684;23.252;2023-08-07T00:55:51;93843.63;;;15.80;87.30
11339;BME280;5724;42.684;23.252;2023-08-07T00:58:17;93850.75;;;15.70;87.76
11339;BME280;5724;42.684;23.252;2023-08-07T01:00:43;93851.53;;;15.71;88.01
11339;BME280;5724;42.684;23.252;2023-08-07T01:03:10;93853.91;;;15.69;87.64
11339;BME280;5724;42.684;23.252;2023-08-07T01:05:37;93846.84;;;15.68;87.42
11339;BME280;5724;42.684;23.252;2023-08-07T01:08:02;93860.09;;;15.87;86.88
11339;BME280;5724;42.684;23.252;2023-08-07T01:13:32;93871.25;;;15.59;88.52
11339;BME280;5724;42.684;23.252;2023-08-07T01:16:04;93871.28;;;15.55;89.25
11339;BME280;5724;42.684;23.252;2023-08-07T01:18:34;93867.91;;;15.26;90.42
11339;BME280;5724;42.684;23.252;2023-08-07T01:21:00;93883.16;;;15.41;89.66
11339;BME280;5724;42.684;23.252;2023-08-07T01:23:25;93881.56;;;15.40;90.41
11339;BME280;5724;42.684;23.252;2023-08-07T01:25:51;93884.84;;;15.17;91.26
11339;BME280;5724;42.684;23.252;2023-08-07T01:28:25;93878.53;;;15.17;92.07
11339;BME280;5724;42.684;23.252;2023-08-07T01:30:55;93866.78;;;15.02;92.92
11339;BME280;5724;42.684;23.252;2023-08-07T01:33:43;93869.13;;;15.04;93.12
11339;BME280;5724;42.684;23.252;2023-08-07T01:36:14;93875.78;;;15.21;92.23
11339;BME280;5724;42.684;23.252;2023-08-07T01:38:41;93876.94;;;15.23;92.07
11339;BME280;5724;42.684;23.252;2023-08-07T01:41:07;93870.72;;;15.08;92.70
11339;BME280;5724;42.684;23.252;2023-08-07T01:43:33;93873.47;;;15.05;93.22
11339;BME280;5724;42.684;23.252;2023-08-07T01:45:58;93873.47;;;15.01;93.95
11339;BME280;5724;42.684;23.252;2023-08-07T01:48:25;93873.03;;;15.13;93.35
11339;BME280;5724;42.684;23.252;2023-08-07T01:50:50;93876.19;;;15.15;93.14
11339;BME280;5724;42.684;23.252;2023-08-07T01:53:16;93883.63;;;15.26;92.31
11339;BME280;5724;42.684;23.252;2023-08-07T01:55:41;93875.72;;;15.35;91.84
11339;BME280;5724;42.684;23.252;2023-08-07T01:58:08;93876.94;;;15.20;91.87
11339;BME280;5724;42.684;23.252;2023-08-07T02:00:33;93873.78;;;15.25;91.51
11339;BME280;5724;42.684;23.252;2023-08-07T02:02:59;93873.41;;;15.26;91.05
11339;BME280;5724;42.684;23.252;2023-08-07T02:05:24;93876.94;;;15.23;91.07
11339;BME280;5724;42.684;23.252;2023-08-07T02:07:49;93884.00;;;15.24;90.82
11339;BME280;5724;42.684;23.252;2023-08-07T02:10:15;93885.59;;;15.25;90.82
11339;BME280;5724;42.684;23.252;2023-08-07T02:12:40;93895.41;;;15.26;90.76
11339;BME280;5724;42.684;23.252;2023-08-07T02:15:06;93889.50;;;15.28;90.08
11339;BME280;5724;42.684;23.252;2023-08-07T02:17:32;93892.63;;;15.33;90.13
11339;BME280;5724;42.684;23.252;2023-08-07T02:19:58;93875.41;;;15.11;90.58
11339;BME280;5724;42.684;23.252;2023-08-07T02:22:23;93899.69;;;15.34;89.65
11339;BME280;5724;42.684;23.252;2023-08-07T02:24:49;93899.34;;;15.25;90.17
11339;BME280;5724;42.684;23.252;2023-08-07T02:27:14;93899.34;;;15.29;89.95
11339;BME280;5724;42.684;23.252;2023-08-07T02:29:40;93901.69;;;15.27;90.15
11339;BME280;5724;42.684;23.252;2023-08-07T02:32:05;93902.88;;;15.29;89.97
11339;BME280;5724;42.684;23.252;2023-08-07T02:34:31;93905.63;;;15.22;90.14
11339;BME280;5724;42.684;23.252;2023-08-07T02:36:57;93907.19;;;15.23;89.92
11339;BME280;5724;42.684;23.252;2023-08-07T02:39:23;93902.94;;;15.08;91.60
11339;BME280;5724;42.684;23.252;2023-08-07T02:41:48;93893.53;;;15.02;92.04
11339;BME280;5724;42.684;23.252;2023-08-07T02:44:14;93893.91;;;15.04;92.37
11339;BME280;5724;42.684;23.252;2023-08-07T02:46:39;93897.06;;;15.02;92.28
11339;BME280;5724;42.684;23.252;2023-08-07T02:49:04;93899.81;;;15.06;92.64
11339;BME280;5724;42.684;23.252;2023-08-07T02:51:30;93898.66;;;15.00;92.87
11339;BME280;5724;42.684;23.252;2023-08-07T02:53:56;93899.41;;;15.04;92.71
11339;BME280;5724;42.684;23.252;2023-08-07T02:56:21;93897.84;;;15.03;92.36
11339;BME280;5724;42.684;23.252;2023-08-07T02:58:47;93874.72;;;14.82;92.78
11339;BME280;5724;42.684;23.252;2023-08-07T03:01:13;93916.69;;;15.04;92.59
11339;BME280;5724;42.684;23.252;2023-08-07T03:03:38;93899.44;;;14.97;92.65
11339;BME280;5724;42.684;23.252;2023-08-07T03:06:03;93915.91;;;15.11;92.70
11339;BME280;5724;42.684;23.252;2023-08-07T03:08:29;93919.88;;;14.99;93.53
11339;BME280;5724;42.684;23.252;2023-08-07T03:10:57;93911.59;;;14.96;93.91
11339;BME280;5724;42.684;23.252;2023-08-07T03:13:24;93926.53;;;15.09;93.60
11339;BME280;5724;42.684;23.252;2023-08-07T03:15:50;93926.13;;;15.10;93.81
11339;BME280;5724;42.684;23.252;2023-08-07T03:18:16;93934.41;;;15.00;94.98
11339;BME280;5724;42.684;23.252;2023-08-07T03:20:42;93935.97;;;14.94;96.04
11339;BME280;5724;42.684;23.252;2023-08-07T03:23:09;93931.31;;;14.80;96.64
11339;BME280;5724;42.684;23.252;2023-08-07T03:25:35;93928.94;;;14.89;96.82
11339;BME280;5724;42.684;23.252;2023-08-07T03:28:00;93929.72;;;14.89;96.75
11339;BME280;5724;42.684;23.252;2023-08-07T03:30:26;93930.50;;;14.86;97.13
11339;BME280;5724;42.684;23.252;2023-08-07T03:32:51;93933.66;;;14.88;97.02
11339;BME280;5724;42.684;23.252;2023-08-07T03:35:17;93940.72;;;14.89;96.80
11339;BME280;5724;42.684;23.252;2023-08-07T03:37:43;93950.13;;;14.92;96.10
11339;BME280;5724;42.684;23.252;2023-08-07T03:40:08;93962.72;;;14.86;96.07
11339;BME280;5724;42.684;23.252;2023-08-07T03:42:34;93974.91;;;14.88;95.41
11339;BME280;5724;42.684;23.252;2023-08-07T03:44:59;93970.97;;;14.89;95.17
11339;BME280;5724;42.684;23.252;2023-08-07T03:47:25;93976.47;;;14.89;94.95
11339;BME280;5724;42.684;23.252;2023-08-07T03:49:50;93965.84;;;14.92;94.90
11339;BME280;5724;42.684;23.252;2023-08-07T03:52:15;93970.97;;;14.89;93.83
11339;BME280;5724;42.684;23.252;2023-08-07T03:54:43;93979.22;;;14.93;93.59
11339;BME280;5724;42.684;23.252;2023-08-07T03:57:09;93978.03;;;14.98;93.61
11339;BME280;5724;42.684;23.252;2023-08-07T03:59:35;93976.84;;;14.99;93.16
11339;BME280;5724;42.684;23.252;2023-08-07T04:02:01;93989.03;;;15.01;93.17
11339;BME280;5724;42.684;23.252;2023-08-07T04:04:26;93989.84;;;14.87;93.94
11339;BME280;5724;42.684;23.252;2023-08-07T04:06:52;93981.97;;;14.89;93.29
11339;BME280;5724;42.684;23.252;2023-08-07T04:09:17;93994.94;;;15.00;93.03
11339;BME280;5724;42.684;23.252;2023-08-07T04:11:42;93993.75;;;15.08;92.34
11339;BME280;5724;42.684;23.252;2023-08-07T04:14:08;93995.69;;;15.18;92.21
11339;BME280;5724;42.684;23.252;2023-08-07T04:16:33;93987.44;;;15.25;91.50
11339;BME280;5724;42.684;23.252;2023-08-07T04:18:59;93993.69;;;15.33;91.13
11339;BME280;5724;42.684;23.252;2023-08-07T04:21:24;94003.91;;;15.39;91.27
11339;BME280;5724;42.684;23.252;2023-08-07T04:23:50;93998.78;;;15.31;90.77
11339;BME280;5724;42.684;23.252;2023-08-07T04:26:15;94003.88;;;15.43;89.91
11339;BME280;5724;42.684;23.252;2023-08-07T04:28:42;94001.53;;;15.41;90.46
11339;BME280;5724;42.684;23.252;2023-08-07T04:31:07;94004.31;;;15.27;90.67
11339;BME280;5724;42.684;23.252;2023-08-07T04:33:33;94016.88;;;15.35;90.76
11339;BME280;5724;42.684;23.252;2023-08-07T04:35:58;94012.53;;;15.41;90.03
11339;BME280;5724;42.684;23.252;2023-08-07T04:38:24;94014.13;;;15.35;91.40
11339;BME280;5724;42.684;23.252;2023-08-07T04:40:50;94015.31;;;15.24;91.17
11339;BME280;5724;42.684;23.252;2023-08-07T04:43:17;94017.72;;;15.11;92.03
11339;BME280;5724;42.684;23.252;2023-08-07T04:45:43;94013.78;;;15.15;92.49
11339;BME280;5724;42.684;23.252;2023-08-07T04:48:10;94011.38;;;15.32;91.88
11339;BME280;5724;42.684;23.252;2023-08-07T04:50:37;94020.81;;;15.24;91.04
11339;BME280;5724;42.684;23.252;2023-08-07T04:53:04;94011.78;;;15.23;92.40
11339;BME280;5724;42.684;23.252;2023-08-07T04:55:30;94020.84;;;15.20;92.36
11339;BME280;5724;42.684;23.252;2023-08-07T04:57:56;94012.59;;;15.16;92.90
11339;BME280;5724;42.684;23.252;2023-08-07T05:00:22;94003.56;;;15.12;91.49
11339;BME280;5724;42.684;23.252;2023-08-07T05:02:48;94018.09;;;15.16;91.81
11339;BME280;5724;42.684;23.252;2023-08-07T05:05:14;94013.00;;;15.18;91.62
11339;BME280;5724;42.684;23.252;2023-08-07T05:07:40;94003.94;;;15.11;92.39
11339;BME280;5724;42.684;23.252;2023-08-07T05:10:06;94013.75;;;15.26;92.07
11339;BME280;5724;42.684;23.252;2023-08-07T05:12:32;93996.41;;;15.43;91.24
11339;BME280;5724;42.684;23.252;2023-08-07T05:14:57;93990.88;;;15.43;90.44
11339;BME280;5724;42.684;23.252;2023-08-07T05:17:22;93999.59;;;15.24;91.59
11339;BME280;5724;42.684;23.252;2023-08-07T05:19:48;93990.50;;;15.45;91.24
11339;BME280;5724;42.684;23.252;2023-08-07T05:22:14;93996.44;;;15.36;89.66
11339;BME280;5724;42.684;23.252;2023-08-07T05:24:39;93995.59;;;15.57;89.99
11339;BME280;5724;42.684;23.252;2023-08-07T05:27:09;94000.28;;;15.67;88.13
11339;BME280;5724;42.684;23.252;2023-08-07T05:29:35;93996.31;;;15.79;87.80
11339;BME280;5724;42.684;23.252;2023-08-07T05:32:08;94005.28;;;15.97;86.68
11339;BME280;5724;42.684;23.252;2023-08-07T05:34:34;94005.72;;;15.92;86.78
11339;BME280;5724;42.684;23.252;2023-08-07T05:36:59;94007.28;;;15.90;86.19
11339;BME280;5724;42.684;23.252;2023-08-07T05:39:24;94010.13;;;15.61;86.37
11339;BME280;5724;42.684;23.252;2023-08-07T05:41:51;94002.22;;;15.78;86.56
11339;BME280;5724;42.684;23.252;2023-08-07T05:44:19;94012.91;;;15.65;87.55
11339;BME280;5724;42.684;23.252;2023-08-07T05:46:44;94009.72;;;15.63;87.14
11339;BME280;5724;42.684;23.252;2023-08-07T05:49:09;94017.19;;;15.73;87.45
11339;BME280;5724;42.684;23.252;2023-08-07T05:51:35;94014.44;;;15.73;87.46
11339;BME280;5724;42.684;23.252;2023-08-07T05:54:00;94006.25;;;15.44;88.04
11339;BME280;5724;42.684;23.252;2023-08-07T05:56:26;94005.03;;;15.67;89.13
11339;BME280;5724;42.684;23.252;2023-08-07T05:58:51;94010.47;;;15.85;88.41
11339;BME280;5724;42.684;23.252;2023-08-07T06:01:17;94009.25;;;15.93;86.88
11339;BME280;5724;42.684;23.252;2023-08-07T06:03:43;94004.81;;;16.10;86.24
11339;BME280;5724;42.684;23.252;2023-08-07T06:06:08;94013.75;;;16.28;85.73
11339;BME280;5724;42.684;23.252;2023-08-07T06:08:35;94009.81;;;16.33;85.41
11339;BME280;5724;42.684;23.252;2023-08-07T06:11:00;94002.66;;;16.42;85.41
11339;BME280;5724;42.684;23.252;2023-08-07T06:13:30;93988.59;;;16.26;86.05
11339;BME280;5724;42.684;23.252;2023-08-07T06:15:56;94011.19;;;16.62;83.97
11339;BME280;5724;42.684;23.252;2023-08-07T06:18:21;94014.28;;;16.68;83.63
11339;BME280;5724;42.684;23.252;2023-08-07T06:20:47;94002.50;;;16.71;83.52
11339;BME280;5724;42.684;23.252;2023-08-07T06:23:12;94013.06;;;16.79;83.19
11339;BME280;5724;42.684;23.252;2023-08-07T06:25:38;94009.50;;;16.82;81.62
11339;BME280;5724;42.684;23.252;2023-08-07T06:28:03;93999.50;;;16.99;81.44
11339;BME280;5724;42.684;23.252;2023-08-07T06:30:31;93998.72;;;17.36;80.61
11339;BME280;5724;42.684;23.252;2023-08-07T06:32:56;94001.28;;;17.58;79.29
11339;BME280;5724;42.684;23.252;2023-08-07T06:35:22;93995.56;;;17.76;75.56
11339;BME280;5724;42.684;23.252;2023-08-07T06:37:48;93997.09;;;17.80;71.58
11339;BME280;5724;42.684;23.252;2023-08-07T06:40:13;93994.75;;;17.79;72.93
11339;BME280;5724;42.684;23.252;2023-08-07T06:42:39;94003.22;;;17.95;73.43
11339;BME280;5724;42.684;23.252;2023-08-07T06:45:05;94015.69;;;18.10;68.96
11339;BME280;5724;42.684;23.252;2023-08-07T06:47:32;94012.97;;;18.07;65.07
11339;BME280;5724;42.684;23.252;2023-08-07T06:49:57;94019.94;;;17.84;66.66
11339;BME280;5724;42.684;23.252;2023-08-07T06:52:23;94007.31;;;17.83;67.60
11339;BME280;5724;42.684;23.252;2023-08-07T06:54:48;94015.81;;;17.99;67.17
11339;BME280;5724;42.684;23.252;2023-08-07T06:57:14;94016.50;;;18.07;66.15
11339;BME280;5724;42.684;23.252;2023-08-07T06:59:39;94009.69;;;18.15;66.85
11339;BME280;5724;42.684;23.252;2023-08-07T07:02:05;94004.44;;;18.24;67.00
11339;BME280;5724;42.684;23.252;2023-08-07T07:04:31;94016.16;;;18.32;66.74
11339;BME280;5724;42.684;23.252;2023-08-07T07:06:56;94003.44;;;18.38;66.81
11339;BME280;5724;42.684;23.252;2023-08-07T07:09:22;94010.69;;;18.28;65.92
11339;BME280;5724;42.684;23.252;2023-08-07T07:11:47;94019.34;;;18.30;65.20
11339;BME280;5724;42.684;23.252;2023-08-07T07:14:13;94013.09;;;18.26;66.33
11339;BME280;5724;42.684;23.252;2023-08-07T07:16:38;94008.53;;;18.43;65.54
11339;BME280;5724;42.684;23.252;2023-08-07T07:19:04;94004.56;;;18.44;63.96
11339;BME280;5724;42.684;23.252;2023-08-07T07:21:31;94000.63;;;18.42;63.60
11339;BME280;5724;42.684;23.252;2023-08-07T07:23:56;94014.50;;;18.69;63.12
11339;BME280;5724;42.684;23.252;2023-08-07T07:26:22;94008.09;;;18.45;63.41
11339;BME280;5724;42.684;23.252;2023-08-07T07:28:47;94003.28;;;18.49;62.10
11339;BME280;5724;42.684;23.252;2023-08-07T07:31:13;94007.97;;;18.82;61.54
11339;BME280;5724;42.684;23.252;2023-08-07T07:33:38;93997.75;;;18.49;61.15
11339;BME280;5724;42.684;23.252;2023-08-07T07:36:05;93988.88;;;18.61;61.68
11339;BME280;5724;42.684;23.252;2023-08-07T07:38:31;93992.59;;;18.78;60.63
11339;BME280;5724;42.684;23.252;2023-08-07T07:40:57;93990.25;;;18.76;62.98
11339;BME280;5724;42.684;23.252;2023-08-07T07:43:23;93993.34;;;19.05;62.06
11339;BME280;5724;42.684;23.252;2023-08-07T07:45:49;93989.72;;;18.85;62.04
11339;BME280;5724;42.684;23.252;2023-08-07T07:48:14;93993.69;;;19.07;62.08
11339;BME280;5724;42.684;23.252;2023-08-07T07:50:41;93999.53;;;19.36;60.45
11339;BME280;5724;42.684;23.252;2023-08-07T07:53:06;93991.75;;;19.28;59.81
11339;BME280;5724;42.684;23.252;2023-08-07T07:55:32;93998.75;;;19.59;59.38
11339;BME280;5724;42.684;23.252;2023-08-07T07:57:59;93987.59;;;19.83;58.66
11339;BME280;5724;42.684;23.252;2023-08-07T08:00:25;93992.81;;;20.17;59.40
11339;BME280;5724;42.684;23.252;2023-08-07T08:02:52;93988.06;;;19.97;58.71
11339;BME280;5724;42.684;23.252;2023-08-07T08:05:19;93999.25;;;19.74;60.10
11339;BME280;5724;42.684;23.252;2023-08-07T08:07:45;93988.28;;;19.87;58.46
11339;BME280;5724;42.684;23.252;2023-08-07T08:10:11;93998.81;;;19.95;58.66
11339;BME280;5724;42.684;23.252;2023-08-07T08:12:37;93983.88;;;20.29;57.72
11339;BME280;5724;42.684;23.252;2023-08-07T08:15:05;93990.69;;;20.44;57.38
11339;BME280;5724;42.684;23.252;2023-08-07T08:17:30;93993.25;;;20.71;57.45
11339;BME280;5724;42.684;23.252;2023-08-07T08:19:58;93991.06;;;20.63;56.39
11339;BME280;5724;42.684;23.252;2023-08-07T08:22:23;93984.03;;;20.58;56.72
11339;BME280;5724;42.684;23.252;2023-08-07T08:24:49;93984.19;;;20.51;57.35
11339;BME280;5724;42.684;23.252;2023-08-07T08:27:14;93979.09;;;20.82;56.57
11339;BME280;5724;42.684;23.252;2023-08-07T08:29:41;93984.31;;;20.96;55.90
11339;BME280;5724;42.684;23.252;2023-08-07T08:32:06;93975.22;;;20.96;54.74
11339;BME280;5724;42.684;23.252;2023-08-07T08:34:32;93970.09;;;20.78;55.34
11339;BME280;5724;42.684;23.252;2023-08-07T08:36:57;93962.63;;;21.07;55.46
11339;BME280;5724;42.684;23.252;2023-08-07T08:39:23;93967.56;;;21.32;54.40
11339;BME280;5724;42.684;23.252;2023-08-07T08:41:49;93966.78;;;20.99;54.80
11339;BME280;5724;42.684;23.252;2023-08-07T08:44:16;93970.44;;;21.29;54.67
11339;BME280;5724;42.684;23.252;2023-08-07T08:46:42;93970.88;;;21.27;54.48
11339;BME280;5724;42.684;23.252;2023-08-07T08:49:28;93966.91;;;21.57;53.63
11339;BME280;5724;42.684;23.252;2023-08-07T08:51:56;93969.34;;;21.23;54.82
11339;BME280;5724;42.684;23.252;2023-08-07T08:54:21;93977.13;;;21.60;53.49
11339;BME280;5724;42.684;23.252;2023-08-07T08:56:47;93965.16;;;21.63;53.17
11339;BME280;5724;42.684;23.252;2023-08-07T08:59:13;93962.94;;;21.42;53.37
11339;BME280;5724;42.684;23.252;2023-08-07T09:01:38;93973.88;;;21.49;53.21
11339;BME280;5724;42.684;23.252;2023-08-07T09:04:04;93970.59;;;21.38;53.09
11339;BME280;5724;42.684;23.252;2023-08-07T09:06:31;93965.72;;;21.26;53.45
11339;BME280;5724;42.684;23.252;2023-08-07T09:08:58;93963.75;;;21.26;53.35
11339;BME280;5724;42.684;23.252;2023-08-07T09:11:25;93972.06;;;21.42;53.64
11339;BME280;5724;42.684;23.252;2023-08-07T09:13:52;93962.94;;;21.71;53.21
11339;BME280;5724;42.684;23.252;2023-08-07T09:16:19;93972.34;;;21.61;52.72
11339;BME280;5724;42.684;23.252;2023-08-07T09:18:44;93946.47;;;21.64;52.84
11339;BME280;5724;42.684;23.252;2023-08-07T09:21:11;93950.38;;;21.66;52.66
11339;BME280;5724;42.684;23.252;2023-08-07T09:23:36;93944.78;;;21.95;52.50
11339;BME280;5724;42.684;23.252;2023-08-07T09:26:03;93934.28;;;21.87;51.51
11339;BME280;5724;42.684;23.252;2023-08-07T09:28:33;93935.50;;;22.27;52.04
11339;BME280;5724;42.684;23.252;2023-08-07T09:30:59;93946.56;;;22.44;51.25
11339;BME280;5724;42.684;23.252;2023-08-07T09:33:28;93941.09;;;22.53;51.17
11339;BME280;5724;42.684;23.252;2023-08-07T09:35:57;93952.13;;;22.44;49.58
11339;BME280;5724;42.684;23.252;2023-08-07T09:38:23;93946.00;;;22.49;49.94
11339;BME280;5724;42.684;23.252;2023-08-07T09:40:49;93941.09;;;22.53;50.82
11339;BME280;5724;42.684;23.252;2023-08-07T09:43:23;93940.53;;;22.83;49.51
11339;BME280;5724;42.684;23.252;2023-08-07T09:45:49;93939.31;;;22.84;49.26
11339;BME280;5724;42.684;23.252;2023-08-07T09:48:24;93935.06;;;22.67;49.22
11339;BME280;5724;42.684;23.252;2023-08-07T09:50:50;93937.53;;;22.91;49.12
11339;BME280;5724;42.684;23.252;2023-08-07T09:53:16;93933.19;;;22.51;48.34
11339;BME280;5724;42.684;23.252;2023-08-07T09:55:43;93945.00;;;22.30;49.19
11339;BME280;5724;42.684;23.252;2023-08-07T09:58:11;93936.19;;;22.70;47.83
11339;BME280;5724;42.684;23.252;2023-08-07T10:00:40;93932.16;;;22.58;47.80
11339;BME280;5724;42.684;23.252;2023-08-07T10:03:06;93933.88;;;22.43;47.81
11339;BME280;5724;42.684;23.252;2023-08-07T10:05:32;93937.31;;;22.72;47.41
11339;BME280;5724;42.684;23.252;2023-08-07T10:07:58;93932.25;;;23.05;47.01
11339;BME280;5724;42.684;23.252;2023-08-07T10:10:23;93937.75;;;23.43;47.07
11339;BME280;5724;42.684;23.252;2023-08-07T10:12:50;93940.13;;;23.32;47.16
11339;BME280;5724;42.684;23.252;2023-08-07T10:15:17;93934.31;;;23.39;46.42
11339;BME280;5724;42.684;23.252;2023-08-07T10:17:43;93939.75;;;23.08;46.80
11339;BME280;5724;42.684;23.252;2023-08-07T10:20:09;93930.94;;;23.45;46.63
11339;BME280;5724;42.684;23.252;2023-08-07T10:22:38;93937.31;;;22.98;46.81
11339;BME280;5724;42.684;23.252;2023-08-07T10:25:04;93938.97;;;23.42;46.47
11339;BME280;5724;42.684;23.252;2023-08-07T10:27:33;93932.06;;;23.34;46.86
11339;BME280;5724;42.684;23.252;2023-08-07T10:30:02;93936.41;;;23.35;47.42
11339;BME280;5724;42.684;23.252;2023-08-07T10:32:30;93930.28;;;23.75;47.28
11339;BME280;5724;42.684;23.252;2023-08-07T10:34:55;93933.59;;;23.48;47.48
11339;BME280;5724;42.684;23.252;2023-08-07T10:37:41;93938.06;;;23.11;48.51
11339;BME280;5724;42.684;23.252;2023-08-07T10:40:09;93927.72;;;22.86;49.45
11339;BME280;5724;42.684;23.252;2023-08-07T10:42:57;93930.09;;;22.88;47.94
11339;BME280;5724;42.684;23.252;2023-08-07T10:45:24;93924.34;;;23.04;47.78
11339;BME280;5724;42.684;23.252;2023-08-07T10:48:10;93913.63;;;23.15;47.15
11339;BME280;5724;42.684;23.252;2023-08-07T10:55:53;93910.22;;;23.89;46.62
11339;BME280;5724;42.684;23.252;2023-08-07T10:58:35;93902.97;;;23.70;45.94
11339;BME280;5724;42.684;23.252;2023-08-07T11:03:55;93905.34;;;24.03;45.17
11339;BME280;5724;42.684;23.252;2023-08-07T11:06:25;93893.88;;;24.01;46.06
11339;BME280;5724;42.684;23.252;2023-08-07T11:08:54;93900.31;;;23.88;45.75
11339;BME280;5724;42.684;23.252;2023-08-07T11:11:19;93894.78;;;24.28;45.05
11339;BME280;5724;42.684;23.252;2023-08-07T11:13:45;93888.59;;;24.03;46.26
11339;BME280;5724;42.684;23.252;2023-08-07T11:16:12;93882.22;;;24.24;44.97
11339;BME280;5724;42.684;23.252;2023-08-07T11:18:38;93881.63;;;24.69;44.73
11339;BME280;5724;42.684;23.252;2023-08-07T11:21:07;93882.19;;;24.95;43.69
11339;BME280;5724;42.684;23.252;2023-08-07T11:23:33;93871.63;;;24.50;43.82
11339;BME280;5724;42.684;23.252;2023-08-07T11:25:58;93875.81;;;23.92;45.02
11339;BME280;5724;42.684;23.252;2023-08-07T11:28:24;93873.03;;;23.92;45.46
11339;BME280;5724;42.684;23.252;2023-08-07T11:30:53;93881.38;;;24.36;44.81
11339;BME280;5724;42.684;23.252;2023-08-07T11:33:21;93877.50;;;24.34;44.22
11339;BME280;5724;42.684;23.252;2023-08-07T11:35:47;93864.47;;;24.09;45.14
11339;BME280;5724;42.684;23.252;2023-08-07T11:38:29;93880.47;;;24.17;43.83
11339;BME280;5724;42.684;23.252;2023-08-07T11:40:57;93858.56;;;24.07;44.52
11339;BME280;5724;42.684;23.252;2023-08-07T11:43:23;93874.53;;;24.37;43.82
11339;BME280;5724;42.684;23.252;2023-08-07T11:45:48;93876.44;;;24.49;43.78
11339;BME280;5724;42.684;23.252;2023-08-07T11:48:15;93873.97;;;24.42;44.50
11339;BME280;5724;42.684;23.252;2023-08-07T11:50:41;93872.47;;;24.28;44.94
11339;BME280;5724;42.684;23.252;2023-08-07T11:53:07;93872.59;;;24.56;44.69
11339;BME280;5724;42.684;23.252;2023-08-07T11:55:33;93881.56;;;24.20;44.32
11339;BME280;5724;42.684;23.252;2023-08-07T11:58:02;93864.50;;;24.18;45.11
11339;BME280;5724;42.684;23.252;2023-08-07T12:00:28;93885.47;;;24.53;44.29
11339;BME280;5724;42.684;23.252;2023-08-07T12:02:54;93875.00;;;24.85;43.96
11339;BME280;5724;42.684;23.252;2023-08-07T12:05:20;93864.72;;;24.64;44.01
11339;BME280;5724;42.684;23.252;2023-08-07T12:07:47;93872.22;;;24.85;43.83
11339;BME280;5724;42.684;23.252;2023-08-07T12:10:13;93870.91;;;24.59;44.87
11339;BME280;5724;42.684;23.252;2023-08-07T12:12:39;93872.38;;;24.10;44.87
11339;BME280;5724;42.684;23.252;2023-08-07T12:15:08;93872.31;;;24.01;45.73
11339;BME280;5724;42.684;23.252;2023-08-07T12:17:35;93862.94;;;24.17;45.79
11339;BME280;5724;42.684;23.252;2023-08-07T12:20:03;93868.53;;;24.48;45.77
11339;BME280;5724;42.684;23.252;2023-08-07T12:22:29;93862.41;;;24.31;45.78
11339;BME280;5724;42.684;23.252;2023-08-07T12:24:54;93864.22;;;24.25;45.64
11339;BME280;5724;42.684;23.252;2023-08-07T12:27:20;93857.53;;;23.91;46.26
11339;BME280;5724;42.684;23.252;2023-08-07T12:29:46;93860.00;;;24.20;45.97
11339;BME280;5724;42.684;23.252;2023-08-07T12:32:11;93862.34;;;23.91;46.44
11339;BME280;5724;42.684;23.252;2023-08-07T12:34:37;93862.13;;;24.07;46.37
11339;BME280;5724;42.684;23.252;2023-08-07T12:37:04;93860.44;;;24.10;46.73
11339;BME280;5724;42.684;23.252;2023-08-07T12:39:29;93865.16;;;24.53;46.31
11339;BME280;5724;42.684;23.252;2023-08-07T12:41:55;93883.16;;;24.30;47.15
11339;BME280;5724;42.684;23.252;2023-08-07T12:44:20;93875.16;;;24.32;47.97
11339;BME280;5724;42.684;23.252;2023-08-07T12:46:47;93863.47;;;24.24;48.42
11339;BME280;5724;42.684;23.252;2023-08-07T12:49:14;93857.63;;;24.10;48.06
11339;BME280;5724;42.684;23.252;2023-08-07T12:51:40;93887.47;;;24.22;48.60
11339;BME280;5724;42.684;23.252;2023-08-07T12:54:05;93891.38;;;24.55;47.58
11339;BME280;5724;42.684;23.252;2023-08-07T12:56:31;93876.44;;;24.49;48.13
11339;BME280;5724;42.684;23.252;2023-08-07T12:58:56;93879.50;;;24.73;47.79
11339;BME280;5724;42.684;23.252;2023-08-07T13:01:22;93891.69;;;24.58;47.81
11339;BME280;5724;42.684;23.252;2023-08-07T13:03:47;93883.06;;;24.34;47.98
11339;BME280;5724;42.684;23.252;2023-08-07T13:06:12;93890.22;;;24.35;47.58
11339;BME280;5724;42.684;23.252;2023-08-07T13:08:38;93887.47;;;24.22;47.66